Time;durP1;ratioP1;P1;durP2;ratioP2;P2;SDS_P1;SDS_P2;PMS_P1;PMS_P2;Temp;Humidity;BMP_temperature;BMP_pressure;BME280_temperature;BME280_humidity;BME280_pressure;Samples;Min_cycle;Max_cycle;Signal;HPM_P1;HPM_P2
2020/12/08 00:01:52;;;;;;;17.60;5.65;;;;;;;;;;5060596;28;20045;-57
2020/12/08 00:04:18;;;;;;;16.90;5.72;;;;;;;;;;5080417;28;20040;-56
2020/12/08 00:06:47;;;;;;;17.48;5.30;;;;;;;;;;5076935;28;20110;-56
2020/12/08 00:09:13;;;;;;;13.73;5.60;;;;;;;;;;5062236;28;20044;-54
2020/12/08 00:11:39;;;;;;;14.10;5.47;;;;;;;;;;5080305;28;20040;-55
2020/12/08 00:14:05;;;;;;;13.18;5.47;;;;;;;;;;5075576;28;20059;-53
2020/12/08 00:16:31;;;;;;;16.10;5.47;;;;;;;;;;5082697;28;20041;-55
2020/12/08 00:18:58;;;;;;;15.10;5.70;;;;;;;;;;5062601;28;20033;-54
2020/12/08 00:21:23;;;;;;;16.70;6.38;;;;;;;;;;5062892;28;20045;-53
2020/12/08 00:23:50;;;;;;;19.02;5.70;;;;;;;;;;5061655;28;20044;-52
2020/12/08 00:26:16;;;;;;;14.15;5.57;;;;;;;;;;5060115;28;20072;-55
2020/12/08 00:28:43;;;;;;;21.08;6.22;;;;;;;;;;5056075;28;20106;-56
2020/12/08 00:31:09;;;;;;;14.35;5.88;;;;;;;;;;5060086;28;20057;-58
2020/12/08 00:33:35;;;;;;;17.38;5.07;;;;;;;;;;5057982;28;20028;-56
2020/12/08 00:36:02;;;;;;;14.85;5.18;;;;;;;;;;5061056;28;20045;-57
2020/12/08 00:38:28;;;;;;;15.68;5.68;;;;;;;;;;5052800;28;20047;-58
2020/12/08 00:40:56;;;;;;;13.70;5.50;;;;;;;;;;5065000;28;20105;-60
2020/12/08 00:43:24;;;;;;;15.43;5.60;;;;;;;;;;5057562;28;20041;-56
2020/12/08 00:45:50;;;;;;;12.02;5.28;;;;;;;;;;5060261;28;20041;-57
2020/12/08 00:48:16;;;;;;;13.95;5.20;;;;;;;;;;5060293;28;20041;-60
2020/12/08 00:50:43;;;;;;;15.85;5.68;;;;;;;;;;5058864;28;20167;-61
2020/12/08 00:53:11;;;;;;;12.52;5.22;;;;;;;;;;5059273;28;20044;-59
2020/12/08 00:55:37;;;;;;;14.35;5.30;;;;;;;;;;5058173;28;20041;-61
2020/12/08 00:58:04;;;;;;;14.10;5.97;;;;;;;;;;5059853;28;20045;-54
2020/12/08 01:00:30;;;;;;;14.18;5.22;;;;;;;;;;5058051;28;20048;-56
2020/12/08 01:02:58;;;;;;;16.20;6.15;;;;;;;;;;5059332;28;20037;-55
2020/12/08 01:05:28;;;;;;;13.55;5.57;;;;;;;;;;5055973;28;20045;-56
2020/12/08 01:07:54;;;;;;;11.40;4.82;;;;;;;;;;5059301;28;20509;-56
2020/12/08 01:10:23;;;;;;;13.23;5.30;;;;;;;;;;5055823;28;20049;-55
2020/12/08 01:12:50;;;;;;;13.10;5.32;;;;;;;;;;5059882;28;20029;-57
2020/12/08 01:15:17;;;;;;;13.82;5.47;;;;;;;;;;5059343;28;20110;-54
2020/12/08 01:17:43;;;;;;;10.77;4.50;;;;;;;;;;5059036;28;20052;-54
2020/12/08 01:20:09;;;;;;;15.00;5.32;;;;;;;;;;5061706;28;20040;-58
2020/12/08 01:22:35;;;;;;;12.45;5.28;;;;;;;;;;5080159;28;20041;-54
2020/12/08 01:25:01;;;;;;;15.27;5.18;;;;;;;;;;5073713;28;20063;-52
2020/12/08 01:27:27;;;;;;;14.15;5.30;;;;;;;;;;5062506;28;20045;-51
2020/12/08 01:29:53;;;;;;;12.63;5.53;;;;;;;;;;5049548;28;20510;-57
2020/12/08 01:32:20;;;;;;;12.80;5.32;;;;;;;;;;5063037;28;20045;-54
2020/12/08 01:34:46;;;;;;;15.13;5.50;;;;;;;;;;5064924;28;20056;-58
2020/12/08 01:37:12;;;;;;;13.30;6.13;;;;;;;;;;5062435;28;20118;-56
2020/12/08 01:39:38;;;;;;;17.48;5.53;;;;;;;;;;5063899;28;20033;-55
2020/12/08 01:42:04;;;;;;;14.48;5.03;;;;;;;;;;5061183;28;20041;-53
2020/12/08 01:44:30;;;;;;;14.80;5.75;;;;;;;;;;5065896;28;20041;-56
2020/12/08 01:46:56;;;;;;;13.75;5.15;;;;;;;;;;5074986;28;20073;-54
2020/12/08 01:49:24;;;;;;;13.48;5.10;;;;;;;;;;5080448;28;20155;-58
2020/12/08 01:51:50;;;;;;;15.40;5.57;;;;;;;;;;5071296;28;20118;-53
2020/12/08 01:54:17;;;;;;;15.55;5.60;;;;;;;;;;5083234;28;20044;-57
2020/12/08 01:56:43;;;;;;;12.98;4.82;;;;;;;;;;5072424;28;20060;-59
2020/12/08 01:59:10;;;;;;;12.20;5.20;;;;;;;;;;5062872;28;20063;-56
2020/12/08 02:01:36;;;;;;;14.60;5.68;;;;;;;;;;5058652;28;20045;-54
2020/12/08 02:04:02;;;;;;;11.50;4.63;;;;;;;;;;5062585;28;20044;-58
2020/12/08 02:06:29;;;;;;;14.60;5.30;;;;;;;;;;5060631;28;20053;-61
2020/12/08 02:08:55;;;;;;;14.88;4.95;;;;;;;;;;5082143;28;20048;-55
2020/12/08 02:11:21;;;;;;;10.27;4.32;;;;;;;;;;5063874;28;20498;-56
2020/12/08 02:13:47;;;;;;;12.20;4.78;;;;;;;;;;5058207;28;20078;-56
2020/12/08 02:16:13;;;;;;;10.80;4.32;;;;;;;;;;5062802;28;20122;-60
2020/12/08 02:18:39;;;;;;;12.82;5.38;;;;;;;;;;5059056;28;20040;-56
2020/12/08 02:21:09;;;;;;;15.73;5.10;;;;;;;;;;5062057;28;20041;-60
2020/12/08 02:23:35;;;;;;;10.77;4.82;;;;;;;;;;5059153;28;20041;-60
2020/12/08 02:26:01;;;;;;;14.50;4.78;;;;;;;;;;5061629;28;20167;-61
2020/12/08 02:28:29;;;;;;;21.92;5.78;;;;;;;;;;5059993;28;20040;-56
2020/12/08 02:30:55;;;;;;;12.95;4.70;;;;;;;;;;5062364;28;20084;-56
2020/12/08 02:33:23;;;;;;;14.00;5.43;;;;;;;;;;5060101;28;20046;-59
2020/12/08 02:35:49;;;;;;;13.52;4.35;;;;;;;;;;5062974;28;20087;-53
2020/12/08 02:38:16;;;;;;;13.38;5.32;;;;;;;;;;5058980;28;20047;-57
2020/12/08 02:40:42;;;;;;;19.35;5.97;;;;;;;;;;5064218;28;20068;-61
2020/12/08 02:43:08;;;;;;;12.68;5.15;;;;;;;;;;5058119;28;20041;-60
2020/12/08 02:45:34;;;;;;;16.40;5.30;;;;;;;;;;5044843;28;20373;-58
2020/12/08 02:48:00;;;;;;;11.52;4.82;;;;;;;;;;5043393;28;20041;-61
2020/12/08 02:50:26;;;;;;;10.07;4.40;;;;;;;;;;5060145;28;20048;-59
2020/12/08 02:52:52;;;;;;;14.18;6.03;;;;;;;;;;5066157;28;20017;-60
2020/12/08 02:55:20;;;;;;;11.60;4.70;;;;;;;;;;5045182;28;20072;-61
2020/12/08 02:57:46;;;;;;;16.30;5.30;;;;;;;;;;5062058;28;20065;-55
2020/12/08 03:00:14;;;;;;;10.82;4.60;;;;;;;;;;5042182;28;20037;-60
2020/12/08 03:02:40;;;;;;;11.27;5.03;;;;;;;;;;5044670;28;20218;-57
2020/12/08 03:05:06;;;;;;;13.25;5.13;;;;;;;;;;5043459;28;20055;-58
2020/12/08 03:07:32;;;;;;;14.75;4.95;;;;;;;;;;5046262;28;20036;-60
2020/12/08 03:09:59;;;;;;;12.55;5.32;;;;;;;;;;5050842;28;20046;-60
2020/12/08 03:12:26;;;;;;;13.43;4.95;;;;;;;;;;5067085;28;20047;-56
2020/12/08 03:14:52;;;;;;;12.02;5.25;;;;;;;;;;5056377;28;20056;-52
2020/12/08 03:17:18;;;;;;;14.60;5.10;;;;;;;;;;5067235;28;20182;-52
2020/12/08 03:19:44;;;;;;;15.27;5.40;;;;;;;;;;5056770;28;20025;-53
2020/12/08 03:22:10;;;;;;;10.90;5.15;;;;;;;;;;5060579;28;20037;-56
2020/12/08 03:24:36;;;;;;;11.80;4.95;;;;;;;;;;5061865;28;20036;-55
2020/12/08 03:27:02;;;;;;;13.70;5.50;;;;;;;;;;5064951;28;20052;-55
2020/12/08 03:29:30;;;;;;;13.10;5.00;;;;;;;;;;5065340;28;20036;-53
2020/12/08 03:31:56;;;;;;;11.98;4.82;;;;;;;;;;5062690;28;20578;-54
2020/12/08 03:34:21;;;;;;;11.10;4.50;;;;;;;;;;5080855;28;20041;-50
2020/12/08 03:36:47;;;;;;;16.85;5.00;;;;;;;;;;5045081;28;20036;-52
2020/12/08 03:39:16;;;;;;;15.35;6.15;;;;;;;;;;5045340;28;20486;-54
2020/12/08 03:41:42;;;;;;;11.40;4.45;;;;;;;;;;5053465;28;20058;-56
2020/12/08 03:44:08;;;;;;;12.25;5.22;;;;;;;;;;5083987;28;20051;-56
2020/12/08 03:46:35;;;;;;;12.38;4.82;;;;;;;;;;5060066;28;20040;-52
2020/12/08 03:49:01;;;;;;;14.15;5.10;;;;;;;;;;5064831;28;20036;-56
2020/12/08 03:51:27;;;;;;;13.68;5.20;;;;;;;;;;5086358;28;20108;-54
2020/12/08 03:53:53;;;;;;;16.80;5.18;;;;;;;;;;5061883;28;20044;-57
2020/12/08 03:56:19;;;;;;;15.68;5.50;;;;;;;;;;5054422;28;20094;-57
2020/12/08 03:58:45;;;;;;;13.35;5.28;;;;;;;;;;5059926;28;20466;-55
2020/12/08 04:01:18;;;;;;;11.07;4.63;;;;;;;;;;5045491;28;20070;-54
2020/12/08 04:03:45;;;;;;;18.55;5.35;;;;;;;;;;5081851;28;20080;-57
2020/12/08 04:06:12;;;;;;;14.23;4.78;;;;;;;;;;5076037;28;20052;-56
2020/12/08 04:08:38;;;;;;;11.45;4.28;;;;;;;;;;5062015;28;20036;-58
2020/12/08 04:11:05;;;;;;;11.23;4.60;;;;;;;;;;5044678;28;20044;-54
2020/12/08 04:13:31;;;;;;;12.32;4.45;;;;;;;;;;5042870;28;20041;-57
2020/12/08 04:15:57;;;;;;;17.17;4.85;;;;;;;;;;5045612;28;21281;-56
2020/12/08 04:18:23;;;;;;;13.38;4.82;;;;;;;;;;5057212;28;20051;-60
2020/12/08 04:20:50;;;;;;;11.85;5.05;;;;;;;;;;5066149;28;20024;-57
2020/12/08 04:23:18;;;;;;;10.82;4.43;;;;;;;;;;5060869;28;20431;-55
2020/12/08 04:25:44;;;;;;;13.50;4.55;;;;;;;;;;5064981;28;20085;-54
2020/12/08 04:28:10;;;;;;;12.80;5.18;;;;;;;;;;5050142;28;20041;-56
2020/12/08 04:30:36;;;;;;;12.10;4.97;;;;;;;;;;5048077;28;20047;-61
2020/12/08 04:33:02;;;;;;;10.65;4.82;;;;;;;;;;5057183;28;20032;-59
2020/12/08 04:35:28;;;;;;;10.65;4.60;;;;;;;;;;5084203;28;20040;-57
2020/12/08 04:37:55;;;;;;;16.15;5.18;;;;;;;;;;5080432;28;20052;-51
2020/12/08 04:40:22;;;;;;;12.70;5.10;;;;;;;;;;5065952;28;20094;-57
2020/12/08 04:42:48;;;;;;;11.85;4.70;;;;;;;;;;5077634;28;20051;-61
2020/12/08 04:45:15;;;;;;;13.43;4.97;;;;;;;;;;5084904;28;20081;-61
2020/12/08 04:47:42;;;;;;;14.18;4.57;;;;;;;;;;5098457;28;20056;-61
2020/12/08 04:50:09;;;;;;;12.70;5.10;;;;;;;;;;5103760;28;20051;-60
2020/12/08 04:52:35;;;;;;;13.05;4.63;;;;;;;;;;5084151;28;20032;-56
2020/12/08 04:55:02;;;;;;;13.25;5.00;;;;;;;;;;5080129;28;20109;-53
2020/12/08 04:57:28;;;;;;;11.40;4.78;;;;;;;;;;5084478;28;20040;-50
2020/12/08 05:00:02;;;;;;;13.48;4.65;;;;;;;;;;5079677;28;20054;-55
2020/12/08 05:02:28;;;;;;;11.38;5.00;;;;;;;;;;5101907;28;20032;-54
2020/12/08 05:04:54;;;;;;;10.60;4.63;;;;;;;;;;5064745;28;20048;-53
2020/12/08 05:07:25;;;;;;;14.40;5.30;;;;;;;;;;5062656;28;20040;-53
2020/12/08 05:09:52;;;;;;;14.30;5.07;;;;;;;;;;5064774;28;20051;-51
2020/12/08 05:12:23;;;;;;;12.70;4.72;;;;;;;;;;5063141;28;20032;-54
2020/12/08 05:14:49;;;;;;;13.38;5.43;;;;;;;;;;5061808;28;20086;-53
2020/12/08 05:17:25;;;;;;;12.48;5.45;;;;;;;;;;5066372;28;20075;-52
2020/12/08 05:20:01;;;;;;;14.18;6.05;;;;;;;;;;5079947;28;20089;-54
2020/12/08 05:22:27;;;;;;;12.43;5.47;;;;;;;;;;5079677;28;20052;-52
2020/12/08 05:24:53;;;;;;;11.52;5.15;;;;;;;;;;5082226;28;20028;-54
2020/12/08 05:27:19;;;;;;;14.20;5.68;;;;;;;;;;5083888;28;20054;-53
2020/12/08 05:29:49;;;;;;;15.00;5.53;;;;;;;;;;5079263;28;20032;-55
2020/12/08 05:32:22;;;;;;;12.82;4.93;;;;;;;;;;5083642;28;20048;-53
2020/12/08 05:34:51;;;;;;;15.02;5.70;;;;;;;;;;5079761;28;20036;-56
2020/12/08 05:37:18;;;;;;;21.15;6.03;;;;;;;;;;5083489;28;20067;-57
2020/12/08 05:39:46;;;;;;;16.70;6.15;;;;;;;;;;5078941;28;20055;-53
2020/12/08 05:42:16;;;;;;;14.20;5.57;;;;;;;;;;5069915;28;20158;-53
2020/12/08 05:44:47;;;;;;;13.50;5.65;;;;;;;;;;5063295;28;20037;-55
2020/12/08 05:47:17;;;;;;;14.43;5.50;;;;;;;;;;5060828;28;20055;-57
2020/12/08 05:49:44;;;;;;;15.57;5.63;;;;;;;;;;5080425;28;20121;-54
2020/12/08 05:52:10;;;;;;;12.48;5.35;;;;;;;;;;5060119;28;20044;-56
2020/12/08 05:54:36;;;;;;;13.00;5.28;;;;;;;;;;5063637;28;20059;-58
2020/12/08 05:57:13;;;;;;;11.50;5.30;;;;;;;;;;5074768;28;20109;-54
2020/12/08 05:59:39;;;;;;;13.43;5.50;;;;;;;;;;5079375;28;20101;-60
2020/12/08 06:02:05;;;;;;;13.10;5.03;;;;;;;;;;5083299;28;20059;-53
2020/12/08 06:04:39;;;;;;;15.40;6.72;;;;;;;;;;5063533;28;20048;-49
2020/12/08 06:07:06;;;;;;;12.88;5.03;;;;;;;;;;5073985;28;20102;-51
2020/12/08 06:09:33;;;;;;;12.50;5.25;;;;;;;;;;5079545;28;20044;-54
2020/12/08 06:12:01;;;;;;;13.10;5.85;;;;;;;;;;5068969;28;20047;-57
2020/12/08 06:14:33;;;;;;;16.40;5.85;;;;;;;;;;5082816;28;20052;-51
2020/12/08 06:17:03;;;;;;;13.63;5.05;;;;;;;;;;5077349;28;20075;-53
2020/12/08 06:19:30;;;;;;;13.20;5.65;;;;;;;;;;5085165;28;20040;-54
2020/12/08 06:21:57;;;;;;;14.38;6.07;;;;;;;;;;5081974;28;20040;-55
2020/12/08 06:24:23;;;;;;;11.48;4.85;;;;;;;;;;5086400;28;20048;-54
2020/12/08 06:26:49;;;;;;;12.55;5.18;;;;;;;;;;5100721;28;20048;-58
2020/12/08 06:29:16;;;;;;;16.83;5.95;;;;;;;;;;5084519;28;20125;-52
2020/12/08 06:31:42;;;;;;;15.13;6.32;;;;;;;;;;5083047;28;20036;-54
2020/12/08 06:34:09;;;;;;;22.23;6.65;;;;;;;;;;5065165;28;20141;-56
2020/12/08 06:36:35;;;;;;;13.93;6.38;;;;;;;;;;5065507;28;20340;-56
2020/12/08 06:39:04;;;;;;;15.63;6.05;;;;;;;;;;5081172;28;20048;-52
2020/12/08 06:41:30;;;;;;;13.35;5.22;;;;;;;;;;5078745;28;20044;-58
2020/12/08 06:43:57;;;;;;;17.35;6.95;;;;;;;;;;5061266;28;20040;-59
2020/12/08 06:46:24;;;;;;;17.08;6.32;;;;;;;;;;5064403;28;20047;-58
2020/12/08 06:48:59;;;;;;;13.95;6.15;;;;;;;;;;5074864;28;20366;-57
2020/12/08 06:51:25;;;;;;;14.13;6.10;;;;;;;;;;5103819;28;20052;-58
2020/12/08 06:53:51;;;;;;;15.02;6.72;;;;;;;;;;5071452;28;20115;-57
2020/12/08 06:56:27;;;;;;;17.35;5.88;;;;;;;;;;5081387;28;20401;-56
2020/12/08 06:58:53;;;;;;;13.70;6.28;;;;;;;;;;5066710;28;20077;-53
2020/12/08 07:01:19;;;;;;;16.65;6.88;;;;;;;;;;5067310;28;20044;-56
2020/12/08 07:03:45;;;;;;;13.02;5.47;;;;;;;;;;5064783;28;20051;-54
2020/12/08 07:06:11;;;;;;;16.98;6.32;;;;;;;;;;5070875;28;20045;-55
2020/12/08 07:08:38;;;;;;;15.00;6.32;;;;;;;;;;5070749;28;20052;-52
2020/12/08 07:11:04;;;;;;;19.50;6.40;;;;;;;;;;5071909;28;20032;-55
2020/12/08 07:13:31;;;;;;;13.02;5.18;;;;;;;;;;5065099;28;20044;-57
2020/12/08 07:15:57;;;;;;;14.10;6.15;;;;;;;;;;5070671;28;20564;-55
2020/12/08 07:18:23;;;;;;;18.95;6.95;;;;;;;;;;5071648;28;20631;-55
2020/12/08 07:20:49;;;;;;;14.55;6.05;;;;;;;;;;5064446;28;20536;-54
2020/12/08 07:23:15;;;;;;;12.02;5.70;;;;;;;;;;5070376;28;20041;-58
2020/12/08 07:25:41;;;;;;;14.15;6.28;;;;;;;;;;5064554;28;20107;-54
2020/12/08 07:28:08;;;;;;;13.35;5.80;;;;;;;;;;5070840;28;20059;-59
2020/12/08 07:30:35;;;;;;;14.40;6.65;;;;;;;;;;5067941;28;20059;-52
2020/12/08 07:33:08;;;;;;;17.25;5.30;;;;;;;;;;5069337;28;20047;-54
2020/12/08 07:35:36;;;;;;;13.65;5.88;;;;;;;;;;5089309;28;20044;-57
2020/12/08 07:38:04;;;;;;;14.98;5.10;;;;;;;;;;5081770;28;20124;-57
2020/12/08 07:40:31;;;;;;;12.85;5.63;;;;;;;;;;5069720;28;20044;-55
2020/12/08 07:42:57;;;;;;;13.02;6.10;;;;;;;;;;5065062;28;20132;-58
2020/12/08 07:45:23;;;;;;;15.60;6.38;;;;;;;;;;5069678;28;20106;-59
2020/12/08 07:47:53;;;;;;;15.18;6.25;;;;;;;;;;5060206;28;20048;-55
2020/12/08 07:50:23;;;;;;;16.95;6.47;;;;;;;;;;5057373;28;20477;-54
2020/12/08 07:52:59;;;;;;;14.13;6.18;;;;;;;;;;5061977;28;20049;-58
2020/12/08 07:55:26;;;;;;;18.02;6.30;;;;;;;;;;5062692;28;20062;-58
2020/12/08 07:57:52;;;;;;;15.35;6.35;;;;;;;;;;5083064;28;20036;-54
2020/12/08 08:00:19;;;;;;;17.95;6.10;;;;;;;;;;5097494;28;20101;-56
2020/12/08 08:02:45;;;;;;;18.67;6.95;;;;;;;;;;5084106;28;20081;-55
2020/12/08 08:05:15;;;;;;;13.98;6.40;;;;;;;;;;5083545;28;20042;-58
2020/12/08 08:07:42;;;;;;;15.32;6.45;;;;;;;;;;5076613;28;20055;-58
2020/12/08 08:10:10;;;;;;;17.65;7.32;;;;;;;;;;5073701;28;20060;-57
2020/12/08 08:12:36;;;;;;;20.60;6.63;;;;;;;;;;5059960;28;20040;-50
2020/12/08 08:15:04;;;;;;;21.15;8.10;;;;;;;;;;5079711;28;20056;-53
2020/12/08 08:17:30;;;;;;;14.95;7.18;;;;;;;;;;5073954;28;20051;-57
2020/12/08 08:19:56;;;;;;;13.98;6.28;;;;;;;;;;5083169;28;20036;-59
2020/12/08 08:22:23;;;;;;;17.23;7.65;;;;;;;;;;5096947;28;20128;-57
2020/12/08 08:24:49;;;;;;;18.85;7.00;;;;;;;;;;5085339;28;20101;-56
2020/12/08 08:27:15;;;;;;;17.40;7.13;;;;;;;;;;5081132;28;20039;-58
2020/12/08 08:29:41;;;;;;;18.95;6.90;;;;;;;;;;5102117;28;20043;-58
2020/12/08 08:32:07;;;;;;;17.70;6.50;;;;;;;;;;5063272;28;20031;-60
2020/12/08 08:34:33;;;;;;;15.70;6.72;;;;;;;;;;5084683;28;20062;-60
2020/12/08 08:36:59;;;;;;;18.05;7.70;;;;;;;;;;5077839;28;20130;-60
2020/12/08 08:39:28;;;;;;;17.70;6.72;;;;;;;;;;5064404;28;20133;-59
2020/12/08 08:41:54;;;;;;;15.60;7.00;;;;;;;;;;5060396;28;20048;-58
2020/12/08 08:44:20;;;;;;;17.55;6.45;;;;;;;;;;5083270;28;20592;-54
2020/12/08 08:46:47;;;;;;;18.33;7.50;;;;;;;;;;5084318;28;20054;-60
2020/12/08 08:49:14;;;;;;;19.90;7.40;;;;;;;;;;5080062;28;20040;-53
2020/12/08 08:51:41;;;;;;;18.52;6.68;;;;;;;;;;5083775;28;20059;-56
2020/12/08 08:54:07;;;;;;;16.70;7.22;;;;;;;;;;5064338;28;20048;-58
2020/12/08 08:56:34;;;;;;;18.05;7.15;;;;;;;;;;5082619;28;20044;-58
2020/12/08 08:59:00;;;;;;;15.20;6.80;;;;;;;;;;5081048;28;20046;-59
2020/12/08 09:01:26;;;;;;;17.40;7.07;;;;;;;;;;5065057;28;20052;-54
2020/12/08 09:03:52;;;;;;;20.60;8.35;;;;;;;;;;5077993;28;20036;-58
2020/12/08 09:06:18;;;;;;;17.95;7.75;;;;;;;;;;5070654;28;20040;-58
2020/12/08 09:08:46;;;;;;;19.27;7.25;;;;;;;;;;5069269;28;20169;-56
2020/12/08 09:11:12;;;;;;;15.13;6.18;;;;;;;;;;5066548;28;20058;-58
2020/12/08 09:13:42;;;;;;;17.23;6.82;;;;;;;;;;5059805;28;20054;-59
2020/12/08 09:16:08;;;;;;;22.80;7.63;;;;;;;;;;5067429;28;20052;-59
2020/12/08 09:18:35;;;;;;;17.88;7.00;;;;;;;;;;5069127;28;20059;-59
2020/12/08 09:21:01;;;;;;;19.00;7.28;;;;;;;;;;5073898;28;20048;-55
2020/12/08 09:23:27;;;;;;;17.48;7.53;;;;;;;;;;5070519;28;20043;-57
2020/12/08 09:25:54;;;;;;;18.08;7.70;;;;;;;;;;5079171;28;20132;-57
2020/12/08 09:28:20;;;;;;;16.67;6.90;;;;;;;;;;5083535;28;20121;-58
2020/12/08 09:30:48;;;;;;;16.92;6.47;;;;;;;;;;5079673;28;20050;-58
2020/12/08 09:33:14;;;;;;;15.88;6.90;;;;;;;;;;5101657;28;20485;-57
2020/12/08 09:35:43;;;;;;;14.65;6.38;;;;;;;;;;5064834;28;20040;-56
2020/12/08 09:38:09;;;;;;;17.40;6.35;;;;;;;;;;5062722;28;20040;-53
2020/12/08 09:40:37;;;;;;;18.25;7.30;;;;;;;;;;5061709;28;20076;-58
2020/12/08 09:43:04;;;;;;;16.90;7.32;;;;;;;;;;5063944;28;20075;-57
2020/12/08 09:45:32;;;;;;;19.50;7.13;;;;;;;;;;5079799;28;20048;-58
2020/12/08 09:47:59;;;;;;;13.45;6.32;;;;;;;;;;5063813;28;20078;-56
2020/12/08 09:50:25;;;;;;;18.13;7.03;;;;;;;;;;5067939;28;20036;-60
2020/12/08 09:52:52;;;;;;;19.42;8.00;;;;;;;;;;5059939;28;20036;-56
2020/12/08 09:55:18;;;;;;;16.50;6.97;;;;;;;;;;5051597;28;20524;-56
2020/12/08 09:57:44;;;;;;;21.48;7.78;;;;;;;;;;5104306;28;20039;-60
2020/12/08 10:00:10;;;;;;;18.30;7.95;;;;;;;;;;5081473;28;20532;-59
2020/12/08 10:02:36;;;;;;;17.35;7.15;;;;;;;;;;5085405;28;20040;-55
2020/12/08 10:05:03;;;;;;;16.75;7.13;;;;;;;;;;5073473;28;20036;-57
2020/12/08 10:07:32;;;;;;;15.80;7.45;;;;;;;;;;5086267;28;20092;-53
2020/12/08 10:12:55;;;;;;;15.25;7.28;;;;;;;;;;5077609;28;20060;-53
2020/12/08 10:15:21;;;;;;;22.90;7.82;;;;;;;;;;5081793;28;20044;-55
2020/12/08 10:17:47;;;;;;;18.15;7.75;;;;;;;;;;5065319;28;20036;-57
2020/12/08 10:20:23;;;;;;;21.52;7.90;;;;;;;;;;5066522;28;20080;-54
2020/12/08 10:22:54;;;;;;;18.40;7.78;;;;;;;;;;5082488;28;20047;-56
2020/12/08 10:25:20;;;;;;;17.25;7.60;;;;;;;;;;5062352;28;20101;-54
2020/12/08 10:27:46;;;;;;;18.15;7.85;;;;;;;;;;5068052;28;20032;-51
2020/12/08 10:30:12;;;;;;;19.13;8.23;;;;;;;;;;5064896;28;20070;-58
2020/12/08 10:32:38;;;;;;;13.60;6.05;;;;;;;;;;5075970;28;20051;-59
2020/12/08 10:35:13;;;;;;;16.08;6.85;;;;;;;;;;5058071;28;20055;-57
2020/12/08 10:37:42;;;;;;;15.32;6.15;;;;;;;;;;5067714;28;20529;-56
2020/12/08 10:40:11;;;;;;;19.45;7.43;;;;;;;;;;5082109;28;20069;-58
2020/12/08 10:42:39;;;;;;;21.77;7.25;;;;;;;;;;5090031;28;20189;-57
2020/12/08 10:45:06;;;;;;;17.10;7.33;;;;;;;;;;5085564;28;20048;-53
2020/12/08 10:47:35;;;;;;;19.50;7.10;;;;;;;;;;5061265;28;20285;-51
2020/12/08 10:50:02;;;;;;;17.92;7.50;;;;;;;;;;5065793;28;20052;-58
2020/12/08 10:52:29;;;;;;;16.20;6.97;;;;;;;;;;5070145;28;20322;-56
2020/12/08 10:54:56;;;;;;;18.73;7.68;;;;;;;;;;5081740;28;20048;-55
2020/12/08 10:57:22;;;;;;;15.43;6.75;;;;;;;;;;5078959;28;20505;-56
2020/12/08 10:59:48;;;;;;;18.50;7.60;;;;;;;;;;5081528;28;20090;-57
2020/12/08 11:02:21;;;;;;;21.02;7.07;;;;;;;;;;5063505;28;20040;-60
2020/12/08 11:04:50;;;;;;;16.38;7.47;;;;;;;;;;5080830;28;20037;-55
2020/12/08 11:07:16;;;;;;;18.13;7.57;;;;;;;;;;5060809;28;20136;-52
2020/12/08 11:09:43;;;;;;;18.90;7.80;;;;;;;;;;5064531;28;20048;-52
2020/12/08 11:12:10;;;;;;;18.75;8.15;;;;;;;;;;5039413;28;20083;-57
2020/12/08 11:14:36;;;;;;;18.30;7.03;;;;;;;;;;5049255;28;20071;-59
2020/12/08 11:17:02;;;;;;;17.75;7.00;;;;;;;;;;5068258;28;20482;-56
2020/12/08 11:19:32;;;;;;;20.15;7.43;;;;;;;;;;5068799;28;20059;-57
2020/12/08 11:22:01;;;;;;;18.45;7.25;;;;;;;;;;5048160;28;20032;-54
2020/12/08 11:24:27;;;;;;;17.77;7.93;;;;;;;;;;5044785;28;20045;-56
2020/12/08 11:26:53;;;;;;;19.13;7.13;;;;;;;;;;5049813;28;20036;-55
2020/12/08 11:29:21;;;;;;;20.92;7.30;;;;;;;;;;5066770;28;20051;-55
2020/12/08 11:31:48;;;;;;;17.58;7.35;;;;;;;;;;5081796;28;20051;-58
2020/12/08 11:34:14;;;;;;;18.50;7.32;;;;;;;;;;5071327;28;20037;-57
2020/12/08 11:36:40;;;;;;;19.27;6.88;;;;;;;;;;5061926;28;20041;-55
2020/12/08 11:39:07;;;;;;;16.25;6.55;;;;;;;;;;5061654;28;20040;-58
2020/12/08 11:41:33;;;;;;;15.82;6.55;;;;;;;;;;5076368;28;20068;-56
2020/12/08 11:43:59;;;;;;;19.60;7.72;;;;;;;;;;5059779;28;20122;-59
2020/12/08 11:46:26;;;;;;;14.30;6.32;;;;;;;;;;5083514;28;20543;-57
2020/12/08 11:48:52;;;;;;;16.13;7.68;;;;;;;;;;5081024;28;20076;-58
2020/12/08 11:51:18;;;;;;;19.80;7.55;;;;;;;;;;5062504;28;20553;-58
2020/12/08 11:53:44;;;;;;;17.70;7.40;;;;;;;;;;5063775;28;20047;-58
2020/12/08 11:56:10;;;;;;;19.92;8.73;;;;;;;;;;5058480;28;20036;-58
2020/12/08 11:58:36;;;;;;;19.30;7.88;;;;;;;;;;5060835;28;20064;-53
2020/12/08 12:01:02;;;;;;;20.35;7.88;;;;;;;;;;5057274;28;20140;-57
2020/12/08 12:03:29;;;;;;;18.88;7.82;;;;;;;;;;5061824;28;20053;-58
2020/12/08 12:06:04;;;;;;;20.25;8.50;;;;;;;;;;5050291;28;20064;-56
2020/12/08 12:08:30;;;;;;;17.52;7.22;;;;;;;;;;5060611;28;20057;-53
2020/12/08 12:10:57;;;;;;;20.65;7.18;;;;;;;;;;5057748;28;20189;-56
2020/12/08 12:13:23;;;;;;;18.58;7.38;;;;;;;;;;5059271;28;20106;-59
2020/12/08 12:15:49;;;;;;;22.30;8.27;;;;;;;;;;5063792;28;20032;-59
2020/12/08 12:18:15;;;;;;;20.92;7.93;;;;;;;;;;5079836;28;20558;-54
2020/12/08 12:20:43;;;;;;;19.98;7.70;;;;;;;;;;5077158;28;20040;-59
2020/12/08 12:23:09;;;;;;;21.73;8.60;;;;;;;;;;5080634;28;20201;-56
2020/12/08 12:25:35;;;;;;;17.83;7.93;;;;;;;;;;5075250;28;20044;-60
2020/12/08 12:28:01;;;;;;;19.17;8.05;;;;;;;;;;5061044;28;20037;-60
2020/12/08 12:30:27;;;;;;;22.25;8.48;;;;;;;;;;5060597;28;20056;-59
2020/12/08 12:32:53;;;;;;;20.00;8.52;;;;;;;;;;5075474;28;20042;-59
2020/12/08 12:35:20;;;;;;;19.73;8.52;;;;;;;;;;5080878;28;20048;-55
2020/12/08 12:37:49;;;;;;;16.55;8.02;;;;;;;;;;5074947;28;20044;-59
2020/12/08 12:40:16;;;;;;;24.45;8.35;;;;;;;;;;5082632;28;20040;-58
2020/12/08 12:42:42;;;;;;;22.70;8.70;;;;;;;;;;5075705;28;20400;-58
2020/12/08 12:45:08;;;;;;;19.10;8.15;;;;;;;;;;5082171;28;20480;-55
2020/12/08 12:47:34;;;;;;;18.85;8.57;;;;;;;;;;5078202;28;20040;-57
2020/12/08 12:50:00;;;;;;;20.63;7.80;;;;;;;;;;5080729;28;20055;-57
2020/12/08 12:52:26;;;;;;;22.08;7.70;;;;;;;;;;5069728;28;20036;-57
2020/12/08 12:54:56;;;;;;;19.85;7.65;;;;;;;;;;5061748;28;20044;-57
2020/12/08 12:57:26;;;;;;;17.42;7.30;;;;;;;;;;5060223;28;20059;-55
2020/12/08 12:59:52;;;;;;;21.05;7.93;;;;;;;;;;5059604;28;20046;-59
2020/12/08 13:02:18;;;;;;;19.65;7.50;;;;;;;;;;5049004;28;20082;-58
2020/12/08 13:04:45;;;;;;;15.63;6.70;;;;;;;;;;5080699;28;20486;-59
2020/12/08 13:07:15;;;;;;;18.63;7.55;;;;;;;;;;5074523;28;20120;-58
2020/12/08 13:09:41;;;;;;;18.10;7.70;;;;;;;;;;5062449;28;20051;-59
2020/12/08 13:12:08;;;;;;;19.52;8.75;;;;;;;;;;5061276;28;20036;-55
2020/12/08 13:14:34;;;;;;;18.63;7.45;;;;;;;;;;5056644;28;20070;-58
2020/12/08 13:17:00;;;;;;;20.13;8.23;;;;;;;;;;5059331;28;20044;-59
2020/12/08 13:19:34;;;;;;;20.10;8.52;;;;;;;;;;5057863;28;20029;-58
2020/12/08 13:22:01;;;;;;;21.70;8.52;;;;;;;;;;5061781;28;20052;-57
2020/12/08 13:24:30;;;;;;;20.55;8.23;;;;;;;;;;5049018;28;20037;-56
2020/12/08 13:26:56;;;;;;;;;;;;;;;;;;5059909;28;20049;-56
2020/12/08 13:29:26;;;;;;;21.55;7.47;;;;;;;;;;5071449;28;19934;-58
2020/12/08 13:31:52;;;;;;;21.02;8.10;;;;;;;;;;5083498;28;20055;-58
2020/12/08 13:34:18;;;;;;;16.33;7.40;;;;;;;;;;5069182;28;20080;-57
2020/12/08 13:36:44;;;;;;;21.52;9.23;;;;;;;;;;5063280;28;20055;-57
2020/12/08 13:39:10;;;;;;;18.63;7.93;;;;;;;;;;5057879;28;20049;-58
2020/12/08 13:41:37;;;;;;;18.00;7.43;;;;;;;;;;5063172;28;20041;-57
2020/12/08 13:44:03;;;;;;;18.35;8.50;;;;;;;;;;5062191;28;20036;-59
2020/12/08 13:46:30;;;;;;;17.73;7.10;;;;;;;;;;5083234;28;20077;-60
2020/12/08 13:48:57;;;;;;;18.58;7.22;;;;;;;;;;5077995;28;20024;-57
2020/12/08 13:51:25;;;;;;;17.15;7.88;;;;;;;;;;5081596;28;20167;-58
2020/12/08 13:53:51;;;;;;;;;;;;;;;;;;5082353;28;20047;-55
2020/12/08 13:56:21;;;;;;;16.63;7.30;;;;;;;;;;5069432;28;19936;-52
2020/12/08 13:58:51;;;;;;;17.60;7.63;;;;;;;;;;5071098;28;20060;-57
2020/12/08 14:01:21;;;;;;;17.08;7.57;;;;;;;;;;5061854;28;20053;-57
2020/12/08 14:03:48;;;;;;;18.35;8.02;;;;;;;;;;5054329;28;20060;-57
2020/12/08 14:06:14;;;;;;;21.33;7.85;;;;;;;;;;5059936;28;20029;-55
2020/12/08 14:08:40;;;;;;;18.23;8.00;;;;;;;;;;5061670;28;20044;-55
2020/12/08 14:11:07;;;;;;;19.33;8.13;;;;;;;;;;5071852;28;20041;-54
2020/12/08 14:13:33;;;;;;;16.75;7.53;;;;;;;;;;5084390;28;20121;-58
2020/12/08 14:15:59;;;;;;;18.17;7.65;;;;;;;;;;5079447;28;20056;-57
2020/12/08 14:18:25;;;;;;;20.10;7.78;;;;;;;;;;5082538;28;20038;-58
2020/12/08 14:20:52;;;;;;;15.98;7.65;;;;;;;;;;5072962;28;20088;-60
2020/12/08 14:23:18;;;;;;;18.77;8.30;;;;;;;;;;5062378;28;20047;-56
2020/12/08 14:25:45;;;;;;;19.75;8.52;;;;;;;;;;5064774;28;20049;-58
2020/12/08 14:28:12;;;;;;;19.40;8.02;;;;;;;;;;5097497;28;20166;-58
2020/12/08 14:30:38;;;;;;;20.05;7.78;;;;;;;;;;5079999;28;20062;-59
2020/12/08 14:33:04;;;;;;;14.60;7.30;;;;;;;;;;5083539;28;20121;-59